This is the latest recevied weather packets stored in our database for station/object AD7ZD. If no packets are shown the sender has not sent any weather packets the latest 10 day(s).
| Time | Temp. | Humidity | Pressure | Rain* | Wind** | Luminosity | Snow |
|---|---|---|---|---|---|---|---|
| 1777569671 | 15.56° C | 28% | 1016.2 hPa | 0 mm | - | 817 W/m² | - |
| 1777569367 | 16.67° C | 28% | 1016.2 hPa | 0 mm | - | 818 W/m² | - |
| 1777568760 | 16.11° C | 29% | 1016.3 hPa | 0 mm | - | 738 W/m² | - |
| 1777568458 | 15.56° C | 30% | 1016.3 hPa | 0 mm | - | 757 W/m² | - |
| 1777568154 | 15° C | 30% | 1016.4 hPa | 0 mm | - | 691 W/m² | - |
| 1777566338 | 14.44° C | 32% | 1016.7 hPa | 0 mm | - | 542 W/m² | - |
| 1777565427 | 13.89° C | 32% | 1016.7 hPa | 0 mm | - | 429 W/m² | - |
| 1777565125 | 13.89° C | 31% | 1016.7 hPa | 0 mm | - | 422 W/m² | - |
| 1777564820 | 13.33° C | 32% | 1016.6 hPa | 0 mm | - | 336 W/m² | - |
| 1777564515 | 13.89° C | 31% | 1016.6 hPa | 0 mm | - | 362 W/m² | - |
| 1777564210 | 13.33° C | 32% | 1016.6 hPa | 0 mm | - | 358 W/m² | - |
| 1777563303 | 12.22° C | 34% | 1016.6 hPa | 0 mm | - | 296 W/m² | - |
| 1777562999 | 12.22° C | 34% | 1016.7 hPa | 0 mm | - | 275 W/m² | - |
| 1777562694 | 12.22° C | 34% | 1016.7 hPa | 0 mm | - | 274 W/m² | - |
| 1777562085 | 11.67° C | 35% | 1016.6 hPa | 0 mm | - | 242 W/m² | - |
| 1777561478 | 11.11° C | 37% | 1016.7 hPa | 0 mm | - | 192 W/m² | - |
| 1777561173 | 10.56° C | 37% | 1016.7 hPa | 0 mm | - | 172 W/m² | - |
| 1777558137 | 6.11° C | 44% | 1016.4 hPa | 0 mm | - | 42 W/m² | - |
| 1777557227 | 4.44° C | 51% | 1016.3 hPa | 0 mm | - | 32 W/m² | - |
| 1777556618 | 3.33° C | 55% | 1016.3 hPa | 0 mm | - | 26 W/m² | - |
| 1777555401 | 1.67° C | 61% | 1016.2 hPa | 0 mm | - | 12 W/m² | - |
| 1777554189 | 2.22° C | 57% | 1016 hPa | 0 mm | - | 2 W/m² | - |
| 1777553582 | 2.78° C | 49% | 1016 hPa | 0 mm | - | 0 W/m² | - |
| 1777552974 | 2.78° C | 50% | 1015.8 hPa | 0 mm | - | 0 W/m² | - |
| 1777552062 | 3.89° C | 47% | 1015.9 hPa | 0 mm | - | 0 W/m² | - |
* Rain latest hour (hover to see other rain measurements)
** Current wind speed in m/s (hover to see current wind gust speed)